createdAt,value
2023-03-17T00:01:36.449Z,28.89
2023-03-17T00:04:21.705Z,28.96
2023-03-17T00:06:53.189Z,28.96
2023-03-17T00:09:28.813Z,28.96
2023-03-17T00:12:01.740Z,28.88
2023-03-17T00:14:35.020Z,29.05
2023-03-17T00:17:19.617Z,28.96
2023-03-17T00:19:54.852Z,28.91
2023-03-17T00:22:28.164Z,29.02
2023-03-17T00:25:24.598Z,28.80
2023-03-17T00:28:04.711Z,28.94
2023-03-17T00:30:40.669Z,28.79
2023-03-17T00:33:22.334Z,28.64
2023-03-17T00:35:59.705Z,29.07
2023-03-17T00:38:36.024Z,28.66
2023-03-17T00:41:14.835Z,28.89
2023-03-17T00:43:45.596Z,28.66
2023-03-17T00:46:27.607Z,28.82
2023-03-17T00:48:58.040Z,28.70
2023-03-17T00:51:42.588Z,28.77
2023-03-17T00:54:14.167Z,28.93
2023-03-17T00:56:51.006Z,28.85
2023-03-17T00:59:38.039Z,28.84
2023-03-17T01:02:18.485Z,28.99
2023-03-17T01:04:59.721Z,28.75
2023-03-17T01:07:52.075Z,28.87
2023-03-17T01:10:31.035Z,28.77
2023-03-17T01:13:07.039Z,28.73
2023-03-17T01:15:46.049Z,28.81
2023-03-17T01:18:18.403Z,28.69
2023-03-17T01:20:49.134Z,28.72
2023-03-17T01:23:22.634Z,28.93
2023-03-17T01:26:06.707Z,28.76
2023-03-17T01:28:39.799Z,28.82
2023-03-17T01:31:18.076Z,28.99
2023-03-17T01:33:56.059Z,28.77
2023-03-17T01:36:32.698Z,28.92
2023-03-17T01:39:09.012Z,28.52
2023-03-17T01:41:48.879Z,29.13
2023-03-17T01:44:30.377Z,28.95
2023-03-17T01:47:04.201Z,28.88
2023-03-17T01:49:42.312Z,28.89
2023-03-17T01:52:17.912Z,29.01
2023-03-17T01:54:47.541Z,28.92
2023-03-17T01:57:23.499Z,28.79
2023-03-17T02:00:18.032Z,28.42
2023-03-17T02:02:59.078Z,28.84
2023-03-17T02:05:34.803Z,28.34
2023-03-17T02:08:17.546Z,28.35
2023-03-17T02:10:52.342Z,28.50
2023-03-17T02:13:33.965Z,28.69
2023-03-17T02:16:07.038Z,28.35
2023-03-17T02:18:43.266Z,28.16
2023-03-17T02:21:36.954Z,28.25
2023-03-17T02:24:13.154Z,28.05
2023-03-17T02:26:47.454Z,28.11
2023-03-17T02:29:22.222Z,28.16
2023-03-17T02:31:53.413Z,27.92
2023-03-17T02:34:33.345Z,28.17
2023-03-17T02:37:07.323Z,27.85
2023-03-17T02:39:49.509Z,28.18
2023-03-17T02:42:25.169Z,28.16
2023-03-17T02:44:55.330Z,28.27
2023-03-17T02:47:33.930Z,28.21
2023-03-17T02:50:08.231Z,28.31
2023-03-17T02:52:44.752Z,28.30
2023-03-17T02:55:17.521Z,28.25
2023-03-17T02:57:59.827Z,28.46
2023-03-17T03:00:33.992Z,28.26
2023-03-17T03:03:05.423Z,28.32
2023-03-17T03:05:44.229Z,28.35
2023-03-17T03:08:16.465Z,28.14
2023-03-17T03:10:54.917Z,28.23
2023-03-17T03:13:31.236Z,28.31
2023-03-17T03:16:13.420Z,28.79
2023-03-17T03:18:43.672Z,28.36
2023-03-17T03:21:22.895Z,28.50
2023-03-17T03:24:01.435Z,28.65
2023-03-17T03:26:33.562Z,28.27
2023-03-17T03:29:09.120Z,28.42
2023-03-17T03:31:48.107Z,28.34
2023-03-17T03:34:32.197Z,28.33
2023-03-17T03:37:05.989Z,28.37
2023-03-17T03:39:42.466Z,28.20
2023-03-17T03:42:19.318Z,28.50
2023-03-17T03:44:55.651Z,28.18
2023-03-17T03:47:26.497Z,28.21
2023-03-17T03:50:02.204Z,28.09
2023-03-17T03:52:41.210Z,28.25
2023-03-17T03:55:16.495Z,28.37
2023-03-17T03:57:49.019Z,28.30
2023-03-17T04:00:23.099Z,28.28
2023-03-17T04:02:58.888Z,28.23
2023-03-17T04:05:29.587Z,28.30
2023-03-17T04:08:00.669Z,28.29
2023-03-17T04:10:33.797Z,28.19
2023-03-17T04:13:09.663Z,28.15
2023-03-17T04:15:43.888Z,28.16
2023-03-17T04:18:14.381Z,28.03
2023-03-17T04:20:47.498Z,28.02
2023-03-17T04:23:27.659Z,27.89
2023-03-17T04:26:00.966Z,28.09
2023-03-17T04:28:36.942Z,27.94
2023-03-17T04:31:07.803Z,28.04
2023-03-17T04:33:38.267Z,28.04
2023-03-17T04:36:18.431Z,27.93
2023-03-17T04:38:51.686Z,27.90
2023-03-17T04:41:25.798Z,28.17
2023-03-17T04:43:59.003Z,28.04
2023-03-17T04:46:32.159Z,28.05
2023-03-17T04:49:10.526Z,28.19
2023-03-17T04:51:46.515Z,28.19
2023-03-17T04:54:19.411Z,28.31
2023-03-17T04:56:53.173Z,27.88
2023-03-17T04:59:28.733Z,27.96
2023-03-17T05:02:12.599Z,28.07
2023-03-17T05:04:43.396Z,28.00
2023-03-17T05:07:17.453Z,27.85
2023-03-17T05:09:55.494Z,27.87
2023-03-17T05:12:34.553Z,27.62
2023-03-17T05:15:10.057Z,27.77
2023-03-17T05:17:44.453Z,27.72
2023-03-17T05:20:18.320Z,27.79
2023-03-17T05:22:51.453Z,27.75
2023-03-17T05:25:25.226Z,27.93
2023-03-17T05:28:01.120Z,27.92
2023-03-17T05:30:37.031Z,27.61
2023-03-17T05:33:07.842Z,28.08
2023-03-17T05:35:46.460Z,28.00
2023-03-17T05:38:22.468Z,27.84
2023-03-17T05:40:55.775Z,27.93
2023-03-17T05:43:34.088Z,28.00
2023-03-17T05:46:15.719Z,27.88
2023-03-17T05:48:48.354Z,27.90
2023-03-17T05:51:24.225Z,27.86
2023-03-17T05:54:02.945Z,27.84
2023-03-17T05:56:42.795Z,27.89
2023-03-17T05:59:18.893Z,27.74
2023-03-17T06:01:48.736Z,27.78
2023-03-17T06:04:30.736Z,27.80
2023-03-17T06:07:09.587Z,27.70
2023-03-17T06:09:44.047Z,27.80
2023-03-17T06:12:26.486Z,27.90
2023-03-17T06:15:08.226Z,27.66
2023-03-17T06:17:41.732Z,27.24
2023-03-17T06:20:16.256Z,27.64
2023-03-17T06:23:03.826Z,27.55
2023-03-17T06:25:43.340Z,27.74
2023-03-17T06:28:17.269Z,27.80
2023-03-17T06:30:53.316Z,27.65
2023-03-17T06:33:25.012Z,28.02
2023-03-17T06:36:11.705Z,28.07
2023-03-17T06:38:40.725Z,28.17
2023-03-17T06:41:16.411Z,27.92
2023-03-17T06:43:52.755Z,27.92
2023-03-17T06:46:29.738Z,27.93
2023-03-17T06:49:03.596Z,27.88
2023-03-17T06:51:37.652Z,28.06
2023-03-17T06:54:18.327Z,28.02
2023-03-17T06:56:54.872Z,28.00
2023-03-17T06:59:33.742Z,27.95
2023-03-17T07:02:10.593Z,28.11
2023-03-17T07:04:43.658Z,27.95
2023-03-17T07:07:18.241Z,27.97
2023-03-17T07:09:57.489Z,27.92
2023-03-17T07:12:33.187Z,28.15
2023-03-17T07:15:07.192Z,28.01
2023-03-17T07:17:48.978Z,27.99
2023-03-17T07:20:23.917Z,27.96
2023-03-17T07:23:05.140Z,28.14
2023-03-17T07:25:47.413Z,28.21
2023-03-17T07:28:23.814Z,28.07
2023-03-17T07:30:57.942Z,27.93
2023-03-17T07:33:34.511Z,28.03
2023-03-17T07:36:13.695Z,28.17
2023-03-17T07:38:48.852Z,28.29
2023-03-17T07:41:19.542Z,28.15
2023-03-17T07:43:56.671Z,28.38
2023-03-17T07:46:30.510Z,28.49
2023-03-17T07:49:15.267Z,28.47
2023-03-17T07:51:48.800Z,28.46
2023-03-17T07:54:26.980Z,28.62
2023-03-17T07:57:04.651Z,28.72
2023-03-17T07:59:38.846Z,28.75
2023-03-17T08:02:29.676Z,28.75
2023-03-17T08:05:02.907Z,28.84
2023-03-17T08:07:41.478Z,28.51
2023-03-17T08:10:18.374Z,28.48
2023-03-17T08:12:55.131Z,28.77
2023-03-17T08:15:29.322Z,28.72
2023-03-17T08:18:01.327Z,28.98
2023-03-17T08:20:34.999Z,28.96
2023-03-17T08:23:09.954Z,28.77
2023-03-17T08:25:52.680Z,28.70
2023-03-17T08:28:27.565Z,28.71
2023-03-17T08:31:17.218Z,28.90
2023-03-17T08:33:58.190Z,28.86
2023-03-17T08:36:34.241Z,28.97
2023-03-17T08:39:11.054Z,28.74
2023-03-17T08:41:45.007Z,28.82
2023-03-17T08:44:22.079Z,29.04
2023-03-17T08:46:57.038Z,28.96
2023-03-17T08:49:34.581Z,28.61
2023-03-17T08:52:10.383Z,28.54
2023-03-17T08:54:50.041Z,28.40
2023-03-17T08:57:32.108Z,27.45
2023-03-17T09:00:11.055Z,27.57
2023-03-17T09:02:49.564Z,27.37
2023-03-17T09:05:28.911Z,27.00
2023-03-17T09:08:00.833Z,26.50
2023-03-17T09:10:37.622Z,26.28
2023-03-17T09:13:13.311Z,26.57
2023-03-17T09:15:56.198Z,26.12
2023-03-17T09:18:31.484Z,25.83
2023-03-17T09:21:10.817Z,26.13
2023-03-17T09:23:44.813Z,26.20
2023-03-17T09:26:19.418Z,26.29
2023-03-17T09:28:53.517Z,26.00
2023-03-17T09:31:27.293Z,26.31
2023-03-17T09:33:59.976Z,26.01
2023-03-17T09:36:38.218Z,26.39
2023-03-17T09:39:06.747Z,26.52
2023-03-17T09:41:51.186Z,25.89
2023-03-17T09:44:53.658Z,26.00
2023-03-17T09:47:30.092Z,25.60
2023-03-17T09:50:14.327Z,25.85
2023-03-17T09:52:43.314Z,26.40
2023-03-17T09:55:31.559Z,26.48
2023-03-17T09:58:07.311Z,26.20
2023-03-17T10:00:41.112Z,26.18
2023-03-17T10:03:15.433Z,26.31
2023-03-17T10:05:47.166Z,25.76
2023-03-17T10:08:31.060Z,25.92
2023-03-17T10:11:10.981Z,25.53
2023-03-17T10:13:49.586Z,24.31
2023-03-17T10:16:30.556Z,23.84
2023-03-17T10:19:27.208Z,23.61
2023-03-17T10:22:07.048Z,23.00
2023-03-17T10:24:47.993Z,22.07
2023-03-17T10:27:20.718Z,21.83
2023-03-17T10:30:04.132Z,21.69
2023-03-17T10:32:41.225Z,21.80
2023-03-17T10:35:15.071Z,20.85
2023-03-17T10:38:13.866Z,20.87
2023-03-17T10:41:10.353Z,21.02
2023-03-17T10:43:53.741Z,20.72
2023-03-17T10:46:30.448Z,20.67
2023-03-17T10:49:16.875Z,20.36
2023-03-17T10:52:01.522Z,20.66
2023-03-17T10:54:38.945Z,20.77
2023-03-17T10:57:18.585Z,20.39
2023-03-17T10:59:59.127Z,20.14
2023-03-17T11:02:32.554Z,19.97
2023-03-17T11:05:12.982Z,20.03
2023-03-17T11:07:49.536Z,19.92
2023-03-17T11:10:29.430Z,20.26
2023-03-17T11:13:13.176Z,20.16
2023-03-17T11:15:46.463Z,19.85
2023-03-17T11:18:34.116Z,19.80
2023-03-17T11:22:05.120Z,20.21
2023-03-17T11:24:42.221Z,19.96
2023-03-17T11:27:19.569Z,20.34
2023-03-17T11:30:17.660Z,20.80
2023-03-17T11:33:30.277Z,20.52
2023-03-17T11:36:14.239Z,20.97
2023-03-17T11:39:00.213Z,21.38
2023-03-17T11:41:51.199Z,21.25
2023-03-17T11:44:34.725Z,21.37
2023-03-17T11:47:28.520Z,21.44
2023-03-17T11:50:22.259Z,21.40
2023-03-17T11:53:08.447Z,21.49
2023-03-17T11:55:51.806Z,21.60
2023-03-17T11:58:52.989Z,21.76
2023-03-17T12:01:46.900Z,21.36
2023-03-17T12:04:26.207Z,21.97
2023-03-17T12:07:22.302Z,21.47
2023-03-17T12:10:20.061Z,21.83
2023-03-17T12:12:55.870Z,21.62
2023-03-17T12:15:56.806Z,21.58
2023-03-17T12:18:43.106Z,21.72
2023-03-17T12:21:25.827Z,22.58
2023-03-17T12:24:18.640Z,22.41
2023-03-17T12:27:05.410Z,22.64
2023-03-17T12:29:47.592Z,22.67
2023-03-17T12:32:44.867Z,22.46
2023-03-17T12:35:19.003Z,22.73
2023-03-17T12:37:56.418Z,22.73
2023-03-17T12:40:47.820Z,22.46
2023-03-17T12:43:34.880Z,22.96
2023-03-17T12:46:23.328Z,22.37
2023-03-17T12:49:09.172Z,22.46
2023-03-17T12:52:01.622Z,22.52
2023-03-17T12:54:40.092Z,22.74
2023-03-17T12:57:17.348Z,22.90
2023-03-17T12:59:54.158Z,22.65
2023-03-17T13:02:31.097Z,23.41
2023-03-17T13:05:22.607Z,23.47
2023-03-17T13:07:56.729Z,23.54
2023-03-17T13:10:53.469Z,23.39
2023-03-17T13:13:41.505Z,23.26
2023-03-17T13:16:30.557Z,23.09
2023-03-17T13:19:20.343Z,23.09
2023-03-17T13:22:06.523Z,23.26
2023-03-17T13:24:52.341Z,23.33
2023-03-17T13:27:33.419Z,23.22
2023-03-17T13:30:22.980Z,23.27
2023-03-17T13:33:28.979Z,23.42
2023-03-17T13:36:42.583Z,23.35
2023-03-17T13:39:19.740Z,23.62
2023-03-17T13:42:15.780Z,23.81
2023-03-17T13:45:15.417Z,23.72
2023-03-17T13:47:49.535Z,23.65
2023-03-17T13:50:30.307Z,23.49
2023-03-17T13:53:03.222Z,23.61
2023-03-17T13:55:35.185Z,23.89
2023-03-17T13:58:12.321Z,23.73
2023-03-17T14:00:59.386Z,23.70
2023-03-17T14:03:43.016Z,23.55
2023-03-17T14:06:18.866Z,24.46
2023-03-17T14:08:59.837Z,23.93
2023-03-17T14:11:40.114Z,23.56
2023-03-17T14:14:45.283Z,24.00
2023-03-17T14:17:32.809Z,23.49
2023-03-17T14:20:09.792Z,23.83
2023-03-17T14:22:50.326Z,23.82
2023-03-17T14:25:34.096Z,23.93
2023-03-17T14:28:10.639Z,23.73
2023-03-17T14:30:56.609Z,24.00
2023-03-17T14:33:34.666Z,24.13
2023-03-17T14:36:14.709Z,24.22
2023-03-17T14:38:56.533Z,24.08
2023-03-17T14:41:32.882Z,24.12
2023-03-17T14:44:04.286Z,23.99
2023-03-17T14:46:36.398Z,23.74
2023-03-17T14:49:19.120Z,24.23
2023-03-17T14:51:56.320Z,23.86
2023-03-17T14:54:38.531Z,23.94
2023-03-17T14:57:18.775Z,24.39
2023-03-17T15:00:02.163Z,24.24
2023-03-17T15:02:44.135Z,24.07
2023-03-17T15:05:39.083Z,23.78
2023-03-17T15:08:34.531Z,24.22
2023-03-17T15:11:13.312Z,24.21
2023-03-17T15:13:50.614Z,24.07
2023-03-17T15:16:30.592Z,23.94
2023-03-17T15:19:27.663Z,24.04
2023-03-17T15:22:09.040Z,24.10
2023-03-17T15:24:45.262Z,23.89
2023-03-17T15:27:25.051Z,24.31
2023-03-17T15:30:01.585Z,23.98
2023-03-17T15:32:36.443Z,24.33
2023-03-17T15:35:19.199Z,24.08
2023-03-17T15:38:01.322Z,24.65
2023-03-17T15:40:38.343Z,24.67
2023-03-17T15:43:19.132Z,24.35
2023-03-17T15:46:01.066Z,24.35
2023-03-17T15:48:36.503Z,24.30
2023-03-17T15:51:10.602Z,24.73
2023-03-17T15:53:40.887Z,24.81
2023-03-17T15:56:19.973Z,24.67
2023-03-17T15:58:58.835Z,24.97
2023-03-17T16:01:40.422Z,24.68
2023-03-17T16:04:11.280Z,25.14
2023-03-17T16:06:48.110Z,25.15
2023-03-17T16:09:22.242Z,24.71
2023-03-17T16:11:58.538Z,25.14
2023-03-17T16:14:34.825Z,25.29
2023-03-17T16:17:06.591Z,24.99
2023-03-17T16:19:35.172Z,25.16
2023-03-17T16:22:08.033Z,25.38
2023-03-17T16:24:46.330Z,25.24
2023-03-17T16:27:22.443Z,25.07
2023-03-17T16:29:53.686Z,25.51
2023-03-17T16:32:29.757Z,24.78
2023-03-17T16:35:06.565Z,25.48
2023-03-17T16:37:47.017Z,25.03
2023-03-17T16:40:27.146Z,25.27
2023-03-17T16:42:57.789Z,25.25
2023-03-17T16:45:33.006Z,25.20
2023-03-17T16:48:06.242Z,25.12
2023-03-17T16:50:35.893Z,25.48
2023-03-17T16:53:06.600Z,25.34
2023-03-17T16:55:35.972Z,25.20
2023-03-17T16:58:17.175Z,25.12
2023-03-17T17:00:46.501Z,25.10
2023-03-17T17:03:18.544Z,25.26
2023-03-17T17:05:47.566Z,24.83
2023-03-17T17:08:15.011Z,25.17
2023-03-17T17:10:45.614Z,25.58
2023-03-17T17:13:13.530Z,25.49
2023-03-17T17:15:42.672Z,25.33
2023-03-17T17:18:24.633Z,25.66
2023-03-17T17:20:57.389Z,25.42
2023-03-17T17:23:27.325Z,25.60
2023-03-17T17:25:55.757Z,25.30
2023-03-17T17:28:27.565Z,25.83
2023-03-17T17:30:58.599Z,25.32
2023-03-17T17:33:27.841Z,25.49
2023-03-17T17:35:58.491Z,25.76
2023-03-17T17:38:30.202Z,25.74
2023-03-17T17:41:11.563Z,25.69
2023-03-17T17:43:42.693Z,25.66
2023-03-17T17:46:12.577Z,25.68
2023-03-17T17:48:40.604Z,25.67
2023-03-17T17:51:08.402Z,25.96
2023-03-17T17:53:44.687Z,25.94
2023-03-17T17:56:17.746Z,26.02
2023-03-17T17:58:47.568Z,26.16
2023-03-17T18:01:20.063Z,25.74
2023-03-17T18:03:47.608Z,25.79
2023-03-17T18:06:17.233Z,25.65
2023-03-17T18:08:44.759Z,26.19
2023-03-17T18:11:16.874Z,26.21
2023-03-17T18:13:46.805Z,26.01
2023-03-17T18:16:18.419Z,25.96
2023-03-17T18:18:47.117Z,26.13
2023-03-17T18:21:17.418Z,26.11
2023-03-17T18:23:50.909Z,25.95
2023-03-17T18:26:18.461Z,26.22
2023-03-17T18:28:45.842Z,25.96
2023-03-17T18:31:18.607Z,26.25
2023-03-17T18:33:51.861Z,26.31
2023-03-17T18:36:20.763Z,25.96
2023-03-17T18:38:48.647Z,25.70
2023-03-17T18:41:20.424Z,25.94
2023-03-17T18:43:47.807Z,26.16
2023-03-17T18:46:17.890Z,26.22
2023-03-17T18:48:45.425Z,26.28
2023-03-17T18:51:12.730Z,25.78
2023-03-17T18:53:42.269Z,25.99
2023-03-17T18:56:12.507Z,26.16
2023-03-17T18:58:39.757Z,26.26
2023-03-17T19:01:09.482Z,25.97
2023-03-17T19:03:37.195Z,25.91
2023-03-17T19:06:26.132Z,26.38
2023-03-17T19:08:54.570Z,26.39
2023-03-17T19:11:26.102Z,26.39
2023-03-17T19:13:58.178Z,26.04
2023-03-17T19:16:29.130Z,26.38
2023-03-17T19:18:59.485Z,26.33
2023-03-17T19:21:32.542Z,26.45
2023-03-17T19:24:03.288Z,26.60
2023-03-17T19:26:31.222Z,26.16
2023-03-17T19:29:05.013Z,26.29
2023-03-17T19:31:41.609Z,26.45
2023-03-17T19:34:11.431Z,26.50
2023-03-17T19:36:46.472Z,26.40
2023-03-17T19:39:22.478Z,26.55
2023-03-17T19:41:55.371Z,26.28
2023-03-17T19:44:22.743Z,26.49
2023-03-17T19:46:53.316Z,26.21
2023-03-17T19:49:23.041Z,26.46
2023-03-17T19:51:50.414Z,26.67
2023-03-17T19:54:23.517Z,26.66
2023-03-17T19:56:52.798Z,26.39
2023-03-17T19:59:20.349Z,26.55
2023-03-17T20:01:50.547Z,26.26
2023-03-17T20:04:23.077Z,26.52
2023-03-17T20:06:56.931Z,26.38
2023-03-17T20:09:27.827Z,26.63
2023-03-17T20:11:57.646Z,26.54
2023-03-17T20:14:25.061Z,26.26
2023-03-17T20:16:55.228Z,26.04
2023-03-17T20:19:24.842Z,26.71
2023-03-17T20:21:54.285Z,26.28
2023-03-17T20:24:26.605Z,26.19
2023-03-17T20:26:58.093Z,26.43
2023-03-17T20:29:28.511Z,26.33
2023-03-17T20:31:56.222Z,26.19
2023-03-17T20:34:24.406Z,26.23
2023-03-17T20:36:51.967Z,26.32
2023-03-17T20:39:22.327Z,26.17
2023-03-17T20:41:51.554Z,26.20
2023-03-17T20:44:19.854Z,25.89
2023-03-17T20:46:47.754Z,25.97
2023-03-17T20:49:16.958Z,26.37
2023-03-17T20:51:47.720Z,26.46
2023-03-17T20:54:18.016Z,26.51
2023-03-17T20:56:52.366Z,26.37
2023-03-17T20:59:21.976Z,26.26
2023-03-17T21:01:50.008Z,26.17
2023-03-17T21:04:20.942Z,26.38
2023-03-17T21:06:53.589Z,26.53
2023-03-17T21:09:23.671Z,26.24
2023-03-17T21:11:53.822Z,26.38
2023-03-17T21:14:23.371Z,26.33
2023-03-17T21:16:52.926Z,26.41
2023-03-17T21:19:27.864Z,26.53
2023-03-17T21:21:57.941Z,26.61
2023-03-17T21:24:29.141Z,26.59
2023-03-17T21:26:59.788Z,26.86
2023-03-17T21:29:32.283Z,26.74
2023-03-17T21:32:02.029Z,26.53
2023-03-17T21:34:35.362Z,26.52
2023-03-17T21:37:05.469Z,26.75
2023-03-17T21:39:36.252Z,26.47
2023-03-17T21:42:04.004Z,26.69
2023-03-17T21:44:37.177Z,26.81
2023-03-17T21:47:10.749Z,26.57
2023-03-17T21:49:40.186Z,26.67
2023-03-17T21:52:10.672Z,26.72
2023-03-17T21:54:37.986Z,26.68
2023-03-17T21:57:08.233Z,26.68
2023-03-17T21:59:41.049Z,26.72
2023-03-17T22:02:14.203Z,26.90
2023-03-17T22:04:44.614Z,26.71
2023-03-17T22:07:14.736Z,26.86
2023-03-17T22:09:47.631Z,26.51
2023-03-17T22:12:21.013Z,27.06
2023-03-17T22:14:51.006Z,26.65
2023-03-17T22:17:18.845Z,26.47
2023-03-17T22:19:49.166Z,26.68
2023-03-17T22:22:21.225Z,26.69
2023-03-17T22:24:51.728Z,26.69
2023-03-17T22:27:19.507Z,26.55
2023-03-17T22:29:51.797Z,26.64
2023-03-17T22:32:21.292Z,26.53
2023-03-17T22:34:51.898Z,26.30
2023-03-17T22:37:24.765Z,26.55
2023-03-17T22:39:52.860Z,26.54
2023-03-17T22:42:24.977Z,26.57
2023-03-17T22:44:52.160Z,26.68
2023-03-17T22:47:21.969Z,26.61
2023-03-17T22:49:52.056Z,26.35
2023-03-17T22:52:21.393Z,26.69
2023-03-17T22:54:53.306Z,26.60
2023-03-17T22:57:21.694Z,26.51
2023-03-17T22:59:52.836Z,26.66
2023-03-17T23:02:22.610Z,26.25
2023-03-17T23:04:50.228Z,26.67
2023-03-17T23:07:17.646Z,26.48
2023-03-17T23:09:51.925Z,26.49
2023-03-17T23:12:23.010Z,26.59
2023-03-17T23:14:50.228Z,26.51
2023-03-17T23:17:23.456Z,26.71
2023-03-17T23:19:53.184Z,26.97
2023-03-17T23:22:20.777Z,26.97
2023-03-17T23:24:48.637Z,26.81
2023-03-17T23:27:15.916Z,27.09
2023-03-17T23:29:43.172Z,26.98
2023-03-17T23:32:15.880Z,26.88
2023-03-17T23:34:46.912Z,26.71
2023-03-17T23:37:16.861Z,26.90
2023-03-17T23:39:49.437Z,26.77
2023-03-17T23:42:17.284Z,27.06
2023-03-17T23:44:50.358Z,27.01
2023-03-17T23:47:22.908Z,27.21
2023-03-17T23:49:57.724Z,26.78
2023-03-17T23:52:28.085Z,27.20
2023-03-17T23:54:55.345Z,26.81
2023-03-17T23:57:27.118Z,26.88
2023-03-17T23:59:56.723Z,26.86
